createdAt,value
2022-11-16T00:03:34.784Z,100736.22
2022-11-16T00:08:37.015Z,100727.50
2022-11-16T00:13:37.149Z,100725.44
2022-11-16T00:18:37.713Z,100729.41
2022-11-16T00:23:38.476Z,100722.75
2022-11-16T00:28:37.537Z,100716.38
2022-11-16T00:33:37.888Z,100705.84
2022-11-16T00:38:36.706Z,100692.88
2022-11-16T00:43:37.570Z,100694.72
2022-11-16T00:48:38.157Z,100667.63
2022-11-16T00:53:37.543Z,100674.16
2022-11-16T00:58:36.837Z,100660.69
2022-11-16T01:03:41.281Z,100655.16
2022-11-16T01:08:41.968Z,100639.03
2022-11-16T01:13:40.895Z,100645.16
2022-11-16T01:18:41.172Z,100640.97
2022-11-16T01:23:39.981Z,100644.75
2022-11-16T01:28:38.816Z,100632.69
2022-11-16T01:33:40.017Z,100619.25
2022-11-16T01:38:44.080Z,100618.84
2022-11-16T01:43:53.435Z,100613.88
2022-11-16T01:49:00.735Z,100609.19
2022-11-16T01:54:02.833Z,100616.94
2022-11-16T01:59:03.161Z,100604.72
2022-11-16T02:04:04.681Z,100593.94
2022-11-16T02:09:41.743Z,100596.44
2022-11-16T02:14:57.704Z,100597.22
2022-11-16T02:20:25.955Z,100600.00
2022-11-16T02:25:36.472Z,100593.69
2022-11-16T02:30:39.292Z,100593.59
2022-11-16T02:35:42.680Z,100584.81
2022-11-16T02:40:47.737Z,100584.72
2022-11-16T02:45:57.449Z,100571.81
2022-11-16T02:50:57.573Z,100568.19
2022-11-16T02:55:59.871Z,100566.69
2022-11-16T03:01:04.509Z,100559.56
2022-11-16T03:06:07.580Z,100562.38
2022-11-16T03:11:27.288Z,100557.25
2022-11-16T03:16:34.262Z,100547.06
2022-11-16T03:21:40.746Z,100540.34
2022-11-16T03:26:47.896Z,100523.41
2022-11-16T03:31:53.399Z,100516.63
2022-11-16T03:36:56.197Z,100507.59
2022-11-16T03:41:58.380Z,100504.41
2022-11-16T03:46:58.796Z,100492.19
2022-11-16T03:51:58.668Z,100464.53
2022-11-16T03:56:57.521Z,100473.38
2022-11-16T04:01:56.500Z,100471.88
2022-11-16T04:07:14.249Z,100472.81
2022-11-16T04:12:30.818Z,100458.78
2022-11-16T04:17:48.135Z,100455.50
2022-11-16T04:23:11.066Z,100461.13
2022-11-16T04:28:16.646Z,100458.50
2022-11-16T04:33:38.811Z,100458.09
2022-11-16T04:38:38.972Z,100456.94
2022-11-16T04:43:37.725Z,100448.84
2022-11-16T04:48:36.894Z,100439.78
2022-11-16T04:53:36.217Z,100432.56
2022-11-16T04:58:54.839Z,100430.09
2022-11-16T05:03:54.330Z,100427.09
2022-11-16T05:08:53.115Z,100429.88
2022-11-16T05:13:52.064Z,100433.63
2022-11-16T05:19:06.805Z,100425.50
2022-11-16T05:24:24.040Z,100435.53
2022-11-16T05:29:22.855Z,100431.50
2022-11-16T05:34:23.331Z,100429.75
2022-11-16T05:39:25.542Z,100421.03
2022-11-16T05:44:25.938Z,100427.41
2022-11-16T05:49:26.391Z,100424.63
2022-11-16T05:54:26.858Z,100428.56
2022-11-16T05:59:27.870Z,100419.72
2022-11-16T06:04:30.490Z,100410.47
2022-11-16T06:09:29.406Z,100406.09
2022-11-16T06:14:33.036Z,100411.50
2022-11-16T06:19:33.198Z,100415.16
2022-11-16T06:24:32.028Z,100409.44
2022-11-16T06:29:30.974Z,100400.41
2022-11-16T06:34:29.980Z,100387.63
2022-11-16T06:39:31.558Z,100397.66
2022-11-16T06:44:30.331Z,100399.19
2022-11-16T06:49:33.369Z,100379.28
2022-11-16T06:54:36.851Z,100376.19
2022-11-16T06:59:35.827Z,100367.50
2022-11-16T07:04:34.564Z,100370.28
2022-11-16T07:09:37.332Z,100370.19
2022-11-16T07:14:36.163Z,100359.44
2022-11-16T07:19:36.996Z,100355.06
2022-11-16T07:24:38.541Z,100366.84
2022-11-16T07:29:37.600Z,100354.66
2022-11-16T07:35:02.822Z,100363.91
2022-11-16T07:40:04.766Z,100360.53
2022-11-16T07:45:03.853Z,100352.44
2022-11-16T07:50:07.358Z,100357.19
2022-11-16T07:55:09.414Z,100345.84
2022-11-16T08:00:09.834Z,100342.97
2022-11-16T08:05:14.549Z,100344.56
2022-11-16T08:10:15.340Z,100339.00
2022-11-16T08:15:14.432Z,100337.75
2022-11-16T08:20:14.514Z,100334.50
2022-11-16T08:25:15.380Z,100344.63
2022-11-16T08:30:15.819Z,100328.50
2022-11-16T08:35:16.648Z,100328.03
2022-11-16T08:40:18.442Z,100327.53
2022-11-16T08:45:18.724Z,100318.59
2022-11-16T08:50:17.867Z,100317.34
2022-11-16T08:55:18.946Z,100314.06
2022-11-16T09:00:19.092Z,100306.13
2022-11-16T09:05:18.066Z,100305.28
2022-11-16T09:10:23.063Z,100309.00
2022-11-16T09:15:21.806Z,100301.41
2022-11-16T09:20:20.785Z,100303.09
2022-11-16T09:25:21.174Z,100298.50
2022-11-16T09:30:20.061Z,100289.97
2022-11-16T09:35:20.869Z,100289.34
2022-11-16T09:40:21.721Z,100275.56
2022-11-16T09:45:26.125Z,100270.81
2022-11-16T09:50:46.684Z,100260.66
2022-11-16T09:55:52.172Z,100240.56
2022-11-16T10:00:57.365Z,100228.38
2022-11-16T10:06:03.980Z,100224.09
2022-11-16T10:11:14.046Z,100214.50
2022-11-16T10:16:20.228Z,100208.69
2022-11-16T10:21:31.073Z,100200.75
2022-11-16T10:26:36.076Z,100198.03
2022-11-16T10:31:57.355Z,100187.53
2022-11-16T10:37:03.478Z,100175.22
2022-11-16T10:42:07.882Z,100178.03
2022-11-16T10:47:16.344Z,100175.63
2022-11-16T10:52:17.925Z,100164.56
2022-11-16T10:57:18.199Z,100156.06
2022-11-16T11:02:31.278Z,100161.06
2022-11-16T11:07:32.839Z,100153.97
2022-11-16T11:12:39.061Z,100138.94
2022-11-16T11:17:39.267Z,100127.50
2022-11-16T11:22:45.184Z,100126.13
2022-11-16T11:27:45.504Z,100122.50
2022-11-16T11:32:44.917Z,100115.28
2022-11-16T11:37:43.956Z,100116.53
2022-11-16T11:42:52.361Z,100117.75
2022-11-16T11:47:58.812Z,100111.56
2022-11-16T11:53:03.899Z,100102.25
2022-11-16T11:58:04.918Z,100111.19
2022-11-16T12:03:32.986Z,100099.53
2022-11-16T12:08:48.804Z,100081.06
2022-11-16T12:14:11.024Z,100081.09
2022-11-16T12:19:46.922Z,100074.91
2022-11-16T12:25:01.359Z,100066.00
2022-11-16T12:30:08.661Z,100064.34
2022-11-16T12:35:31.079Z,100059.91
2022-11-16T12:40:39.237Z,100048.38
2022-11-16T12:45:52.693Z,100055.72
2022-11-16T12:50:56.565Z,100042.41
2022-11-16T12:56:01.899Z,100050.97
2022-11-16T13:01:12.198Z,100042.16
2022-11-16T13:06:18.850Z,100034.59
2022-11-16T13:11:25.063Z,100036.66
2022-11-16T13:16:25.510Z,100032.91
2022-11-16T13:21:41.358Z,100029.53
2022-11-16T13:26:45.837Z,100023.34
2022-11-16T13:31:54.898Z,100024.06
2022-11-16T13:36:55.248Z,100005.94
2022-11-16T13:42:08.673Z,100014.34
2022-11-16T13:47:19.622Z,100000.41
2022-11-16T13:52:28.599Z,99990.09
2022-11-16T13:57:35.856Z,99975.22
2022-11-16T14:02:36.480Z,99989.25
2022-11-16T14:07:42.986Z,99982.72
2022-11-16T14:12:53.374Z,99970.16
2022-11-16T14:17:57.242Z,99969.78
2022-11-16T14:23:12.525Z,99952.69
2022-11-16T14:28:35.615Z,99957.28
2022-11-16T14:33:36.294Z,99968.22
2022-11-16T14:38:38.868Z,99955.19
2022-11-16T14:43:44.183Z,99955.38
2022-11-16T14:48:47.362Z,99944.25
2022-11-16T14:53:49.018Z,99940.25
2022-11-16T14:58:55.580Z,99922.59
2022-11-16T15:04:02.492Z,99943.44
2022-11-16T15:09:05.587Z,99943.19
2022-11-16T15:14:04.531Z,99942.59
2022-11-16T15:19:03.710Z,99940.22
2022-11-16T15:29:27.149Z,99936.97
2022-11-16T15:34:26.261Z,99937.91
2022-11-16T15:39:35.628Z,99930.84
2022-11-16T15:44:34.912Z,99931.59
2022-11-16T15:49:36.574Z,99936.06
2022-11-16T15:54:51.119Z,99938.56
2022-11-16T15:59:52.203Z,99928.53
2022-11-16T16:04:51.562Z,99930.94
2022-11-16T16:10:23.564Z,99925.88
2022-11-16T16:15:25.196Z,99927.22
2022-11-16T16:20:26.618Z,99928.38
2022-11-16T16:25:31.741Z,99925.91
2022-11-16T16:30:31.742Z,99921.16
2022-11-16T16:35:30.611Z,99917.34
2022-11-16T16:40:30.989Z,99910.59
2022-11-16T16:45:37.294Z,99915.31
2022-11-16T16:50:36.318Z,99910.84
2022-11-16T16:55:37.878Z,99903.97
2022-11-16T17:00:36.931Z,99903.97
2022-11-16T17:05:36.247Z,99898.91
2022-11-16T17:10:38.920Z,99908.03
2022-11-16T17:15:37.916Z,99899.91
2022-11-16T17:20:37.590Z,99891.38
2022-11-16T17:25:39.773Z,99891.38
2022-11-16T17:30:38.579Z,99878.78
2022-11-16T17:35:38.134Z,99870.13
2022-11-16T17:40:37.235Z,99873.72
2022-11-16T17:45:39.779Z,99866.00
2022-11-16T17:50:41.035Z,99871.16
2022-11-16T17:55:40.902Z,99860.94
2022-11-16T18:00:41.050Z,99861.06
2022-11-16T18:05:40.561Z,99854.94
2022-11-16T18:10:41.755Z,99853.25
2022-11-16T18:15:42.672Z,99849.69
2022-11-16T18:20:41.719Z,99847.81
2022-11-16T18:25:40.579Z,99846.84
2022-11-16T18:30:39.760Z,99838.97
2022-11-16T18:35:40.418Z,99836.97
2022-11-16T18:40:40.768Z,99834.44
2022-11-16T18:45:40.688Z,99842.34
2022-11-16T18:50:40.715Z,99834.91
2022-11-16T18:55:39.472Z,99837.97
2022-11-16T19:00:38.238Z,99840.59
2022-11-16T19:05:37.163Z,99836.28
2022-11-16T19:10:39.072Z,99832.53
2022-11-16T19:15:37.826Z,99826.69
2022-11-16T19:20:37.543Z,99821.75
2022-11-16T19:25:39.998Z,99823.97
2022-11-16T19:30:40.062Z,99819.16
2022-11-16T19:35:41.146Z,99822.22
2022-11-16T19:40:42.960Z,99822.97
2022-11-16T19:45:53.174Z,99816.41
2022-11-16T19:50:53.607Z,99820.41
2022-11-16T19:55:57.093Z,99822.63
2022-11-16T20:01:02.218Z,99824.66
2022-11-16T20:06:08.964Z,99824.97
2022-11-16T20:11:17.984Z,99817.63
2022-11-16T20:16:19.171Z,99822.66
2022-11-16T20:21:22.579Z,99818.25
2022-11-16T20:26:23.151Z,99812.97
2022-11-16T20:31:24.462Z,99812.91
2022-11-16T20:36:25.418Z,99809.09
2022-11-16T20:41:28.238Z,99810.38
2022-11-16T20:46:29.710Z,99800.34
2022-11-16T20:51:31.105Z,99792.03
2022-11-16T20:56:31.852Z,99797.84
2022-11-16T21:01:34.277Z,99803.63
2022-11-16T21:06:35.883Z,99802.69
2022-11-16T21:11:58.575Z,99800.66
2022-11-16T21:16:57.287Z,99798.69
2022-11-16T21:21:55.975Z,99798.56
2022-11-16T21:26:56.037Z,99800.47
2022-11-16T21:31:54.653Z,99804.50
2022-11-16T21:36:53.937Z,99798.88
2022-11-16T21:41:52.652Z,99791.63
2022-11-16T21:46:53.549Z,99795.00
2022-11-16T21:51:53.305Z,99792.59
2022-11-16T21:56:52.001Z,99789.84
2022-11-16T22:02:00.976Z,99793.63
2022-11-16T22:07:17.201Z,99790.88
2022-11-16T22:12:16.186Z,99778.56
2022-11-16T22:17:16.269Z,99780.34
2022-11-16T22:22:15.004Z,99777.81
2022-11-16T22:27:13.880Z,99777.72
2022-11-16T22:32:12.574Z,99766.44
2022-11-16T22:37:12.688Z,99771.00
2022-11-16T22:42:13.221Z,99767.63
2022-11-16T22:47:12.314Z,99766.75
2022-11-16T22:52:12.378Z,99758.84
2022-11-16T22:57:11.037Z,99757.94
2022-11-16T23:02:09.764Z,99738.25
2022-11-16T23:07:08.522Z,99738.25
2022-11-16T23:12:26.822Z,99731.28
2022-11-16T23:17:25.584Z,99716.13
2022-11-16T23:22:41.869Z,99708.75
2022-11-16T23:27:44.538Z,99698.00
2022-11-16T23:32:43.453Z,99685.47
2022-11-16T23:37:52.451Z,99679.84
2022-11-16T23:43:10.295Z,99671.75
2022-11-16T23:48:10.222Z,99660.88
2022-11-16T23:53:10.174Z,99666.81
2022-11-16T23:58:13.365Z,99659.44
